M/V Alishan Blossom — 3EVZ4 — position and weather

sailwx.info

Track history (hours):
 
Tides and Currents Weather Stations Pressure Air Temp Water Temp Dewpoint Dewpoint Depression Visibility Wind Speed Wind Dir Waves Ship Positions

M/V Alishan Blossom

Last reported at 2018-Jun-22 08:26 UTC. Time now 2018-Jun-23 18:07 UTC.
Position N 23°20' E 117°53'.

Length 110 m; draft 7.1 m.

Type: Ship. MMSI: 371473000.

Date/timePositionNaut miles runAvg speedWind from/ knotsBaromVisibWave heightAir tempDewpointWater temp
2018-Jun-22 08:26N 23°20' E 117°53'4 9.4
2018-Jun-22 08:00N 23°23' E 117°57'5 9.5
2018-Jun-22 07:30N 23°26' E 118°01'8 9.7
2018-Jun-22 06:40N 23°31' E 118°07'2 9.9
2018-Jun-22 06:28N 23°33' E 118°09'510.1
2018-Jun-22 05:56N 23°36' E 118°13'  
2018-Jun-17 17:49N 34°26' E 134°09'410.7
2018-Jun-17 17:28N 34°24' E 134°13'711.3
2018-Jun-17 16:50N 34°24' E 134°21'411.5
2018-Jun-17 16:30N 34°26' E 134°25'611.6
2018-Jun-17 16:00N 34°28' E 134°32'612.0
2018-Jun-17 15:30N 34°31' E 134°39'612.9
2018-Jun-17 15:00N 34°33' E 134°46'814.6
2018-Jun-17 14:28N 34°36' E 134°55'612.8
2018-Jun-17 14:00N 34°37' E 135°02'510.0
2018-Jun-17 13:30N 34°33' E 135°05'610.9
2018-Jun-17 13:00N 34°28' E 135°03'612.0
2018-Jun-17 12:30N 34°22' E 135°02'713.3
2018-Jun-17 12:00N 34°16' E 134°59'611.3
2018-Jun-17 11:30N 34°10' E 134°59'612.1
2018-Jun-17 11:00N 34°04' E 134°59'612.1
2018-Jun-17 10:30N 33°58' E 134°60'612.0
2018-Jun-17 10:00N 33°52' E 134°59'710.7
2018-Jun-17 09:19N 33°45' E 135°03'  
2018-Jun-13 10:28N 35°06' E 139°41'510.5
2018-Jun-13 10:00N 35°09' E 139°45'611.5
2018-Jun-13 09:30N 35°15' E 139°46'5 9.8
2018-Jun-13 09:01N 35°19' E 139°43'4 8.7
2018-Jun-13 08:31N 35°23' E 139°42'3 6.3
2018-Jun-13 07:59N 35°26' E 139°45'2 4.5
2018-Jun-13 07:30N 35°25' E 139°47'4 7.6
2018-Jun-13 07:00N 35°22' E 139°51'0 0.2
2018-Jun-13 06:29N 35°22' E 139°51'0 0.0
2018-Jun-13 06:00N 35°22' E 139°51'0 0.0
2018-Jun-13 05:29N 35°22' E 139°51'0 0.0
2018-Jun-13 04:59N 35°22' E 139°51'0 0.0
2018-Jun-13 04:29N 35°22' E 139°51'0 0.0
2018-Jun-13 04:00N 35°22' E 139°51'0 0.0
2018-Jun-13 03:29N 35°22' E 139°51'0 0.0
2018-Jun-13 03:00N 35°22' E 139°51'0 0.0
2018-Jun-13 02:30N 35°22' E 139°51'0 0.0
2018-Jun-13 01:57N 35°22' E 139°51'0 0.0
2018-Jun-13 01:30N 35°22' E 139°51'0 0.0
2018-Jun-13 00:59N 35°22' E 139°51'0 0.0
2018-Jun-13 00:30N 35°22' E 139°51'0 0.0
2018-Jun-12 23:59N 35°22' E 139°51'0 0.0
2018-Jun-12 23:29N 35°22' E 139°51'0 0.0
2018-Jun-12 22:59N 35°22' E 139°51'0 0.0
2018-Jun-12 22:29N 35°22' E 139°51'0 0.0
2018-Jun-12 21:59N 35°22' E 139°51'0 0.0
2018-Jun-12 21:27N 35°22' E 139°51'0 0.0
2018-Jun-12 20:59N 35°22' E 139°51'0 0.0
2018-Jun-12 20:29N 35°22' E 139°51'0 0.0
2018-Jun-12 19:59N 35°22' E 139°51'0 0.0
2018-Jun-12 19:30N 35°22' E 139°51'0 0.0
2018-Jun-12 18:59N 35°22' E 139°51'0 0.0
2018-Jun-12 18:30N 35°22' E 139°51'0 0.0
2018-Jun-12 18:00N 35°22' E 139°51'0 0.0
2018-Jun-12 17:30N 35°22' E 139°51'0 0.0
2018-Jun-12 16:59N 35°22' E 139°51'0 0.0
2018-Jun-12 16:29N 35°22' E 139°51'0 0.0
2018-Jun-12 16:00N 35°22' E 139°51'0 0.0
2018-Jun-12 15:30N 35°22' E 139°51'0 0.0
2018-Jun-12 14:57N 35°22' E 139°51'0 0.0
2018-Jun-12 14:30N 35°22' E 139°51'0 0.0
2018-Jun-12 14:00N 35°22' E 139°51'0 0.0
2018-Jun-12 13:30N 35°22' E 139°51'0 0.0
2018-Jun-12 12:59N 35°22' E 139°51'0 0.0
2018-Jun-12 12:29N 35°22' E 139°51'0 0.0
2018-Jun-12 11:59N 35°22' E 139°51'0 0.0
2018-Jun-12 11:29N 35°22' E 139°51'0 0.0
2018-Jun-12 10:59N 35°22' E 139°51'0 0.0
2018-Jun-12 10:30N 35°22' E 139°51'0 0.0
2018-Jun-12 09:59N 35°22' E 139°51'0 0.0
2018-Jun-12 09:30N 35°22' E 139°51'0 0.0
2018-Jun-12 08:59N 35°22' E 139°51'0 0.0
2018-Jun-12 08:30N 35°22' E 139°51'  
Track history (hours):
 
Tides and Currents Weather Stations Pressure Air Temp Water Temp Dewpoint Dewpoint Depression Visibility Wind Speed Wind Dir Waves Ship Positions

M/V Alishan Blossom

Last reported at 2018-Jun-22 08:26 UTC. Time now 2018-Jun-23 18:07 UTC.
Position N 23°20' E 117°53'.

Length 110 m; draft 7.1 m.

Type: Ship. MMSI: 371473000.

Date/timePositionNaut miles runAvg speedWind from/ knotsBaromVisibWave heightAir tempDewpointWater temp
2018-Jun-22 08:26N 23°20' E 117°53'4 9.4
2018-Jun-22 08:00N 23°23' E 117°57'5 9.5
2018-Jun-22 07:30N 23°26' E 118°01'8 9.7
2018-Jun-22 06:40N 23°31' E 118°07'2 9.9
2018-Jun-22 06:28N 23°33' E 118°09'510.1
2018-Jun-22 05:56N 23°36' E 118°13'  
2018-Jun-17 17:49N 34°26' E 134°09'410.7
2018-Jun-17 17:28N 34°24' E 134°13'711.3
2018-Jun-17 16:50N 34°24' E 134°21'411.5
2018-Jun-17 16:30N 34°26' E 134°25'611.6
2018-Jun-17 16:00N 34°28' E 134°32'612.0
2018-Jun-17 15:30N 34°31' E 134°39'612.9
2018-Jun-17 15:00N 34°33' E 134°46'814.6
2018-Jun-17 14:28N 34°36' E 134°55'612.8
2018-Jun-17 14:00N 34°37' E 135°02'510.0
2018-Jun-17 13:30N 34°33' E 135°05'610.9
2018-Jun-17 13:00N 34°28' E 135°03'612.0
2018-Jun-17 12:30N 34°22' E 135°02'713.3
2018-Jun-17 12:00N 34°16' E 134°59'611.3
2018-Jun-17 11:30N 34°10' E 134°59'612.1
2018-Jun-17 11:00N 34°04' E 134°59'612.1
2018-Jun-17 10:30N 33°58' E 134°60'612.0
2018-Jun-17 10:00N 33°52' E 134°59'710.7
2018-Jun-17 09:19N 33°45' E 135°03'  
2018-Jun-13 10:28N 35°06' E 139°41'510.5
2018-Jun-13 10:00N 35°09' E 139°45'611.5
2018-Jun-13 09:30N 35°15' E 139°46'5 9.8
2018-Jun-13 09:01N 35°19' E 139°43'4 8.7
2018-Jun-13 08:31N 35°23' E 139°42'3 6.3
2018-Jun-13 07:59N 35°26' E 139°45'2 4.5
2018-Jun-13 07:30N 35°25' E 139°47'4 7.6
2018-Jun-13 07:00N 35°22' E 139°51'0 0.2
2018-Jun-13 06:29N 35°22' E 139°51'0 0.0
2018-Jun-13 06:00N 35°22' E 139°51'0 0.0
2018-Jun-13 05:29N 35°22' E 139°51'0 0.0
2018-Jun-13 04:59N 35°22' E 139°51'0 0.0
2018-Jun-13 04:29N 35°22' E 139°51'0 0.0
2018-Jun-13 04:00N 35°22' E 139°51'0 0.0
2018-Jun-13 03:29N 35°22' E 139°51'0 0.0
2018-Jun-13 03:00N 35°22' E 139°51'0 0.0
2018-Jun-13 02:30N 35°22' E 139°51'0 0.0
2018-Jun-13 01:57N 35°22' E 139°51'0 0.0
2018-Jun-13 01:30N 35°22' E 139°51'0 0.0
2018-Jun-13 00:59N 35°22' E 139°51'0 0.0
2018-Jun-13 00:30N 35°22' E 139°51'0 0.0
2018-Jun-12 23:59N 35°22' E 139°51'0 0.0
2018-Jun-12 23:29N 35°22' E 139°51'0 0.0
2018-Jun-12 22:59N 35°22' E 139°51'0 0.0
2018-Jun-12 22:29N 35°22' E 139°51'0 0.0
2018-Jun-12 21:59N 35°22' E 139°51'0 0.0
2018-Jun-12 21:27N 35°22' E 139°51'0 0.0
2018-Jun-12 20:59N 35°22' E 139°51'0 0.0
2018-Jun-12 20:29N 35°22' E 139°51'0 0.0
2018-Jun-12 19:59N 35°22' E 139°51'0 0.0
2018-Jun-12 19:30N 35°22' E 139°51'0 0.0
2018-Jun-12 18:59N 35°22' E 139°51'0 0.0
2018-Jun-12 18:30N 35°22' E 139°51'0 0.0
2018-Jun-12 18:00N 35°22' E 139°51'0 0.0
2018-Jun-12 17:30N 35°22' E 139°51'0 0.0
2018-Jun-12 16:59N 35°22' E 139°51'0 0.0
2018-Jun-12 16:29N 35°22' E 139°51'0 0.0
2018-Jun-12 16:00N 35°22' E 139°51'0 0.0
2018-Jun-12 15:30N 35°22' E 139°51'0 0.0
2018-Jun-12 14:57N 35°22' E 139°51'0 0.0
2018-Jun-12 14:30N 35°22' E 139°51'0 0.0
2018-Jun-12 14:00N 35°22' E 139°51'0 0.0
2018-Jun-12 13:30N 35°22' E 139°51'0 0.0
2018-Jun-12 12:59N 35°22' E 139°51'0 0.0
2018-Jun-12 12:29N 35°22' E 139°51'0 0.0
2018-Jun-12 11:59N 35°22' E 139°51'0 0.0
2018-Jun-12 11:29N 35°22' E 139°51'0 0.0
2018-Jun-12 10:59N 35°22' E 139°51'0 0.0
2018-Jun-12 10:30N 35°22' E 139°51'0 0.0
2018-Jun-12 09:59N 35°22' E 139°51'0 0.0
2018-Jun-12 09:30N 35°22' E 139°51'0 0.0
2018-Jun-12 08:59N 35°22' E 139°51'0 0.0
2018-Jun-12 08:30N 35°22' E 139°51'  

Dump ship's entire track history